sensor_id;sensor_type;location;lat;lon;timestamp;pressure;altitude;pressure_sealevel;temperature;humidity
77192;BME280;66172;48.526;8.078;2023-11-19T00:00:38;99688.91;;;9.65;100.00
77192;BME280;66172;48.526;8.078;2023-11-19T00:03:04;99692.06;;;9.76;100.00
77192;BME280;66172;48.526;8.078;2023-11-19T00:05:31;99695.91;;;9.75;100.00
77192;BME280;66172;48.526;8.078;2023-11-19T00:07:57;99686.94;;;9.83;100.00
77192;BME280;66172;48.526;8.078;2023-11-19T00:10:23;99681.19;;;9.84;100.00
77192;BME280;66172;48.526;8.078;2023-11-19T00:12:49;99670.75;;;9.95;100.00
77192;BME280;66172;48.526;8.078;2023-11-19T00:15:16;99654.16;;;9.88;100.00
77192;BME280;66172;48.526;8.078;2023-11-19T00:17:47;99650.66;;;9.87;100.00
77192;BME280;66172;48.526;8.078;2023-11-19T00:20:15;99642.91;;;9.98;100.00
77192;BME280;66172;48.526;8.078;2023-11-19T00:22:42;99646.75;;;9.97;100.00
77192;BME280;66172;48.526;8.078;2023-11-19T00:25:08;99634.22;;;9.84;100.00
77192;BME280;66172;48.526;8.078;2023-11-19T00:27:35;99634.28;;;9.96;100.00
77192;BME280;66172;48.526;8.078;2023-11-19T00:30:04;99644.03;;;9.97;100.00
77192;BME280;66172;48.526;8.078;2023-11-19T00:32:32;99645.22;;;9.87;100.00
77192;BME280;66172;48.526;8.078;2023-11-19T00:34:58;99644.56;;;9.90;100.00
77192;BME280;66172;48.526;8.078;2023-11-19T00:37:24;99629.84;;;9.91;100.00
77192;BME280;66172;48.526;8.078;2023-11-19T00:39:49;99635.41;;;9.95;100.00
77192;BME280;66172;48.526;8.078;2023-11-19T00:42:15;99643.38;;;10.00;100.00
77192;BME280;66172;48.526;8.078;2023-11-19T00:44:41;99646.03;;;10.09;100.00
77192;BME280;66172;48.526;8.078;2023-11-19T00:47:07;99644.91;;;10.10;100.00
77192;BME280;66172;48.526;8.078;2023-11-19T00:49:33;99641.00;;;9.98;100.00
77192;BME280;66172;48.526;8.078;2023-11-19T00:51:59;99632.22;;;10.22;100.00
77192;BME280;66172;48.526;8.078;2023-11-19T00:54:25;99628.44;;;10.15;100.00
77192;BME280;66172;48.526;8.078;2023-11-19T00:56:52;99624.84;;;10.02;100.00
77192;BME280;66172;48.526;8.078;2023-11-19T00:59:18;99629.13;;;10.03;100.00
77192;BME280;66172;48.526;8.078;2023-11-19T01:01:44;99618.53;;;10.10;100.00
77192;BME280;66172;48.526;8.078;2023-11-19T01:04:10;99617.88;;;10.13;100.00
77192;BME280;66172;48.526;8.078;2023-11-19T01:06:36;99609.09;;;10.16;100.00
77192;BME280;66172;48.526;8.078;2023-11-19T01:09:02;99604.72;;;10.24;100.00
77192;BME280;66172;48.526;8.078;2023-11-19T01:11:28;99603.31;;;10.18;100.00
77192;BME280;66172;48.526;8.078;2023-11-19T01:13:54;99608.13;;;10.12;100.00
77192;BME280;66172;48.526;8.078;2023-11-19T01:16:20;99601.75;;;10.08;100.00
77192;BME280;66172;48.526;8.078;2023-11-19T01:18:47;99605.41;;;10.12;100.00
77192;BME280;66172;48.526;8.078;2023-11-19T01:21:13;99610.50;;;10.14;100.00
77192;BME280;66172;48.526;8.078;2023-11-19T01:23:40;99601.59;;;10.13;100.00
77192;BME280;66172;48.526;8.078;2023-11-19T01:26:12;99613.75;;;10.07;100.00
77192;BME280;66172;48.526;8.078;2023-11-19T01:28:39;99613.75;;;10.07;100.00
77192;BME280;66172;48.526;8.078;2023-11-19T01:31:05;99618.81;;;10.17;100.00
77192;BME280;66172;48.526;8.078;2023-11-19T01:33:36;99616.28;;;10.12;100.00
77192;BME280;66172;48.526;8.078;2023-11-19T01:36:02;99599.50;;;10.10;100.00
77192;BME280;66172;48.526;8.078;2023-11-19T01:38:28;99611.28;;;10.23;100.00
77192;BME280;66172;48.526;8.078;2023-11-19T01:40:57;99613.00;;;10.27;100.00
77192;BME280;66172;48.526;8.078;2023-11-19T01:43:37;99612.53;;;10.25;100.00
77192;BME280;66172;48.526;8.078;2023-11-19T01:46:05;99606.44;;;10.28;100.00
77192;BME280;66172;48.526;8.078;2023-11-19T01:48:32;99607.72;;;10.31;100.00
77192;BME280;66172;48.526;8.078;2023-11-19T01:50:59;99603.97;;;10.35;100.00
77192;BME280;66172;48.526;8.078;2023-11-19T01:53:26;99597.47;;;10.28;100.00
77192;BME280;66172;48.526;8.078;2023-11-19T01:55:53;99612.78;;;10.32;100.00
77192;BME280;66172;48.526;8.078;2023-11-19T01:58:19;99599.22;;;10.32;100.00
77192;BME280;66172;48.526;8.078;2023-11-19T02:00:45;99590.59;;;10.30;100.00
77192;BME280;66172;48.526;8.078;2023-11-19T02:03:11;99596.28;;;10.37;100.00
77192;BME280;66172;48.526;8.078;2023-11-19T02:05:38;99588.59;;;10.39;100.00
77192;BME280;66172;48.526;8.078;2023-11-19T02:08:05;99601.38;;;10.39;100.00
77192;BME280;66172;48.526;8.078;2023-11-19T02:10:31;99606.38;;;10.37;100.00
77192;BME280;66172;48.526;8.078;2023-11-19T02:12:58;99615.78;;;10.39;100.00
77192;BME280;66172;48.526;8.078;2023-11-19T02:15:24;99614.31;;;10.42;100.00
77192;BME280;66172;48.526;8.078;2023-11-19T02:17:50;99612.50;;;10.46;100.00
77192;BME280;66172;48.526;8.078;2023-11-19T02:20:17;99618.63;;;10.43;100.00
77192;BME280;66172;48.526;8.078;2023-11-19T02:22:46;99610.47;;;10.43;100.00
77192;BME280;66172;48.526;8.078;2023-11-19T02:25:27;99615.09;;;10.42;100.00
77192;BME280;66172;48.526;8.078;2023-11-19T02:27:59;99610.47;;;10.43;100.00
77192;BME280;66172;48.526;8.078;2023-11-19T02:30:26;99598.34;;;10.40;100.00
77192;BME280;66172;48.526;8.078;2023-11-19T02:32:56;99602.44;;;10.46;100.00
77192;BME280;66172;48.526;8.078;2023-11-19T02:35:26;99606.16;;;10.42;100.00
77192;BME280;66172;48.526;8.078;2023-11-19T02:37:53;99601.72;;;10.37;100.00
77192;BME280;66172;48.526;8.078;2023-11-19T02:40:19;99609.09;;;10.37;100.00
77192;BME280;66172;48.526;8.078;2023-11-19T02:42:45;99604.78;;;10.36;100.00
77192;BME280;66172;48.526;8.078;2023-11-19T02:45:11;99602.19;;;10.39;100.00
77192;BME280;66172;48.526;8.078;2023-11-19T02:47:41;99604.22;;;10.42;100.00
77192;BME280;66172;48.526;8.078;2023-11-19T02:50:09;99594.16;;;10.43;100.00
77192;BME280;66172;48.526;8.078;2023-11-19T02:52:41;99593.22;;;10.39;100.00
77192;BME280;66172;48.526;8.078;2023-11-19T02:55:08;99598.88;;;10.34;100.00
77192;BME280;66172;48.526;8.078;2023-11-19T02:57:39;99608.06;;;10.41;100.00
77192;BME280;66172;48.526;8.078;2023-11-19T03:00:21;99616.69;;;10.43;100.00
77192;BME280;66172;48.526;8.078;2023-11-19T03:02:51;99594.03;;;10.39;100.00
77192;BME280;66172;48.526;8.078;2023-11-19T03:05:35;99594.97;;;10.43;100.00
77192;BME280;66172;48.526;8.078;2023-11-19T03:08:01;99590.31;;;10.44;100.00
77192;BME280;66172;48.526;8.078;2023-11-19T03:10:28;99592.81;;;10.49;100.00
77192;BME280;66172;48.526;8.078;2023-11-19T03:12:54;99600.44;;;10.56;100.00
77192;BME280;66172;48.526;8.078;2023-11-19T03:15:22;99586.81;;;10.56;100.00
77192;BME280;66172;48.526;8.078;2023-11-19T03:17:48;99587.44;;;10.61;100.00
77192;BME280;66172;48.526;8.078;2023-11-19T03:20:14;99578.78;;;10.59;100.00
77192;BME280;66172;48.526;8.078;2023-11-19T03:22:43;99580.88;;;10.62;100.00
77192;BME280;66172;48.526;8.078;2023-11-19T03:25:10;99579.59;;;10.60;100.00
77192;BME280;66172;48.526;8.078;2023-11-19T03:27:39;99598.75;;;10.63;100.00
77192;BME280;66172;48.526;8.078;2023-11-19T03:30:10;99597.38;;;10.57;100.00
77192;BME280;66172;48.526;8.078;2023-11-19T03:32:37;99586.50;;;10.57;100.00
77192;BME280;66172;48.526;8.078;2023-11-19T03:35:05;99588.81;;;10.67;100.00
77192;BME280;66172;48.526;8.078;2023-11-19T03:37:33;99591.53;;;10.67;100.00
77192;BME280;66172;48.526;8.078;2023-11-19T03:39:59;99584.97;;;10.68;100.00
77192;BME280;66172;48.526;8.078;2023-11-19T03:42:29;99590.06;;;10.70;100.00
77192;BME280;66172;48.526;8.078;2023-11-19T03:44:58;99583.63;;;10.74;100.00
77192;BME280;66172;48.526;8.078;2023-11-19T03:47:24;99592.69;;;10.78;100.00
77192;BME280;66172;48.526;8.078;2023-11-19T03:49:51;99593.50;;;10.79;100.00
77192;BME280;66172;48.526;8.078;2023-11-19T03:52:17;99598.47;;;10.77;100.00
77192;BME280;66172;48.526;8.078;2023-11-19T03:54:44;99589.19;;;10.78;100.00
77192;BME280;66172;48.526;8.078;2023-11-19T03:57:10;99583.88;;;10.81;100.00
77192;BME280;66172;48.526;8.078;2023-11-19T03:59:39;99588.06;;;10.79;100.00
77192;BME280;66172;48.526;8.078;2023-11-19T04:02:05;99592.75;;;10.90;100.00
77192;BME280;66172;48.526;8.078;2023-11-19T04:04:32;99593.25;;;10.84;100.00
77192;BME280;66172;48.526;8.078;2023-11-19T04:06:58;99600.66;;;10.83;100.00
77192;BME280;66172;48.526;8.078;2023-11-19T04:09:26;99603.38;;;10.83;100.00
77192;BME280;66172;48.526;8.078;2023-11-19T04:11:52;99605.28;;;10.83;100.00
77192;BME280;66172;48.526;8.078;2023-11-19T04:14:18;99614.38;;;10.87;100.00
77192;BME280;66172;48.526;8.078;2023-11-19T04:16:44;99611.91;;;10.94;100.00
77192;BME280;66172;48.526;8.078;2023-11-19T04:19:11;99611.78;;;10.90;100.00
77192;BME280;66172;48.526;8.078;2023-11-19T04:21:40;99601.91;;;10.86;100.00
77192;BME280;66172;48.526;8.078;2023-11-19T04:24:07;99590.34;;;10.89;100.00
77192;BME280;66172;48.526;8.078;2023-11-19T04:26:33;99612.09;;;10.89;100.00
77192;BME280;66172;48.526;8.078;2023-11-19T04:28:59;99606.91;;;10.96;100.00
77192;BME280;66172;48.526;8.078;2023-11-19T04:31:29;99602.16;;;11.05;100.00
77192;BME280;66172;48.526;8.078;2023-11-19T04:33:57;99614.63;;;11.06;100.00
77192;BME280;66172;48.526;8.078;2023-11-19T04:36:23;99617.03;;;11.08;100.00
77192;BME280;66172;48.526;8.078;2023-11-19T04:38:50;99607.72;;;11.09;100.00
77192;BME280;66172;48.526;8.078;2023-11-19T04:41:16;99611.91;;;11.06;100.00
77192;BME280;66172;48.526;8.078;2023-11-19T04:43:42;99607.59;;;11.05;100.00
77192;BME280;66172;48.526;8.078;2023-11-19T04:46:09;99606.03;;;11.04;100.00
77192;BME280;66172;48.526;8.078;2023-11-19T04:48:35;99617.34;;;11.06;100.00
77192;BME280;66172;48.526;8.078;2023-11-19T04:51:05;99612.59;;;11.03;100.00
77192;BME280;66172;48.526;8.078;2023-11-19T04:53:31;99608.28;;;11.02;100.00
77192;BME280;66172;48.526;8.078;2023-11-19T04:55:56;99605.34;;;11.07;100.00
77192;BME280;66172;48.526;8.078;2023-11-19T04:58:22;99609.19;;;11.06;100.00
77192;BME280;66172;48.526;8.078;2023-11-19T05:00:48;99609.78;;;11.12;100.00
77192;BME280;66172;48.526;8.078;2023-11-19T05:03:14;99603.06;;;11.09;100.00
77192;BME280;66172;48.526;8.078;2023-11-19T05:05:40;99607.84;;;11.12;100.00
77192;BME280;66172;48.526;8.078;2023-11-19T05:08:06;99596.50;;;11.10;100.00
77192;BME280;66172;48.526;8.078;2023-11-19T05:10:32;99596.38;;;11.07;100.00
77192;BME280;66172;48.526;8.078;2023-11-19T05:12:58;99592.06;;;11.06;100.00
77192;BME280;66172;48.526;8.078;2023-11-19T05:15:23;99595.59;;;11.06;100.00
77192;BME280;66172;48.526;8.078;2023-11-19T05:17:49;99595.72;;;11.10;100.00
77192;BME280;66172;48.526;8.078;2023-11-19T05:20:15;99589.81;;;11.08;100.00
77192;BME280;66172;48.526;8.078;2023-11-19T05:22:42;99586.97;;;11.04;100.00
77192;BME280;66172;48.526;8.078;2023-11-19T05:25:08;99597.06;;;11.03;100.00
77192;BME280;66172;48.526;8.078;2023-11-19T05:27:36;99601.84;;;11.07;100.00
77192;BME280;66172;48.526;8.078;2023-11-19T05:30:05;99598.56;;;11.13;100.00
77192;BME280;66172;48.526;8.078;2023-11-19T05:32:36;99601.88;;;11.19;100.00
77192;BME280;66172;48.526;8.078;2023-11-19T05:35:02;99595.94;;;11.17;100.00
77192;BME280;66172;48.526;8.078;2023-11-19T05:37:28;99608.56;;;11.21;100.00
77192;BME280;66172;48.526;8.078;2023-11-19T05:39:54;99609.22;;;11.18;100.00
77192;BME280;66172;48.526;8.078;2023-11-19T05:42:20;99600.84;;;11.23;100.00
77192;BME280;66172;48.526;8.078;2023-11-19T05:44:46;99609.22;;;11.30;100.00
77192;BME280;66172;48.526;8.078;2023-11-19T05:47:12;99608.91;;;11.44;100.00
77192;BME280;66172;48.526;8.078;2023-11-19T05:49:38;99606.16;;;11.44;100.00
77192;BME280;66172;48.526;8.078;2023-11-19T05:52:04;99596.66;;;11.50;100.00
77192;BME280;66172;48.526;8.078;2023-11-19T05:54:33;99602.44;;;11.48;100.00
77192;BME280;66172;48.526;8.078;2023-11-19T05:57:06;99597.00;;;11.48;100.00
77192;BME280;66172;48.526;8.078;2023-11-19T05:59:35;99601.31;;;11.49;100.00
77192;BME280;66172;48.526;8.078;2023-11-19T06:02:04;99587.00;;;11.52;100.00
77192;BME280;66172;48.526;8.078;2023-11-19T06:04:30;99586.66;;;11.54;100.00
77192;BME280;66172;48.526;8.078;2023-11-19T06:06:56;99582.91;;;11.59;100.00
77192;BME280;66172;48.526;8.078;2023-11-19T06:09:22;99593.81;;;11.59;100.00
77192;BME280;66172;48.526;8.078;2023-11-19T06:11:51;99582.59;;;11.60;100.00
77192;BME280;66172;48.526;8.078;2023-11-19T06:14:17;99590.19;;;11.67;100.00
77192;BME280;66172;48.526;8.078;2023-11-19T06:16:43;99575.75;;;11.66;100.00
77192;BME280;66172;48.526;8.078;2023-11-19T06:19:09;99579.41;;;11.70;100.00
77192;BME280;66172;48.526;8.078;2023-11-19T06:21:36;99582.13;;;11.70;100.00
77192;BME280;66172;48.526;8.078;2023-11-19T06:24:02;99593.03;;;11.70;100.00
77192;BME280;66172;48.526;8.078;2023-11-19T06:26:29;99591.56;;;11.73;100.00
77192;BME280;66172;48.526;8.078;2023-11-19T06:28:55;99584.03;;;11.70;100.00
77192;BME280;66172;48.526;8.078;2023-11-19T06:31:21;99604.84;;;11.74;100.00
77192;BME280;66172;48.526;8.078;2023-11-19T06:33:47;99610.63;;;11.73;100.00
77192;BME280;66172;48.526;8.078;2023-11-19T06:36:16;99616.44;;;11.71;100.00
77192;BME280;66172;48.526;8.078;2023-11-19T06:38:44;99617.53;;;11.70;100.00
77192;BME280;66172;48.526;8.078;2023-11-19T06:41:10;99602.03;;;11.71;100.00
77192;BME280;66172;48.526;8.078;2023-11-19T06:43:37;99605.75;;;11.78;100.00
77192;BME280;66172;48.526;8.078;2023-11-19T06:46:03;99596.91;;;11.81;100.00
77192;BME280;66172;48.526;8.078;2023-11-19T06:48:32;99591.66;;;11.88;100.00
77192;BME280;66172;48.526;8.078;2023-11-19T06:50:59;99591.78;;;11.80;100.00
77192;BME280;66172;48.526;8.078;2023-11-19T06:53:25;99594.06;;;11.78;100.00
77192;BME280;66172;48.526;8.078;2023-11-19T06:55:54;99591.78;;;11.80;100.00
77192;BME280;66172;48.526;8.078;2023-11-19T06:58:19;99597.34;;;11.83;100.00
77192;BME280;66172;48.526;8.078;2023-11-19T07:00:45;99594.19;;;11.81;100.00
77192;BME280;66172;48.526;8.078;2023-11-19T07:03:12;99587.34;;;11.87;100.00
77192;BME280;66172;48.526;8.078;2023-11-19T07:05:38;99588.16;;;11.88;100.00
77192;BME280;66172;48.526;8.078;2023-11-19T07:08:06;99599.00;;;12.00;100.00
77192;BME280;66172;48.526;8.078;2023-11-19T07:10:33;99602.53;;;12.13;100.00
77192;BME280;66172;48.526;8.078;2023-11-19T07:12:59;99590.00;;;12.24;100.00
77192;BME280;66172;48.526;8.078;2023-11-19T07:15:26;99600.78;;;12.20;100.00
77192;BME280;66172;48.526;8.078;2023-11-19T07:17:51;99608.19;;;12.20;100.00
77192;BME280;66172;48.526;8.078;2023-11-19T07:20:20;99616.00;;;12.21;99.78
77192;BME280;66172;48.526;8.078;2023-11-19T07:22:46;99617.97;;;12.21;100.00
77192;BME280;66172;48.526;8.078;2023-11-19T07:25:14;99618.28;;;12.19;100.00
77192;BME280;66172;48.526;8.078;2023-11-19T07:27:40;99626.03;;;12.17;100.00
77192;BME280;66172;48.526;8.078;2023-11-19T07:30:06;99621.72;;;12.16;100.00
77192;BME280;66172;48.526;8.078;2023-11-19T07:32:35;99614.56;;;12.12;100.00
77192;BME280;66172;48.526;8.078;2023-11-19T07:35:01;99603.31;;;12.13;100.00
77192;BME280;66172;48.526;8.078;2023-11-19T07:37:27;99624.66;;;12.11;100.00
77192;BME280;66172;48.526;8.078;2023-11-19T07:39:53;99630.69;;;12.17;100.00
77192;BME280;66172;48.526;8.078;2023-11-19T07:42:18;99624.75;;;12.27;100.00
77192;BME280;66172;48.526;8.078;2023-11-19T07:44:44;99614.38;;;12.32;99.71
77192;BME280;66172;48.526;8.078;2023-11-19T07:47:11;99620.09;;;12.27;100.00
77192;BME280;66172;48.526;8.078;2023-11-19T07:49:36;99621.91;;;12.23;100.00
77192;BME280;66172;48.526;8.078;2023-11-19T07:52:03;99632.13;;;12.26;100.00
77192;BME280;66172;48.526;8.078;2023-11-19T07:54:29;99635.84;;;12.34;100.00
77192;BME280;66172;48.526;8.078;2023-11-19T07:56:55;99633.94;;;12.34;100.00
77192;BME280;66172;48.526;8.078;2023-11-19T07:59:21;99629.03;;;12.40;100.00
77192;BME280;66172;48.526;8.078;2023-11-19T08:01:47;99627.28;;;12.47;99.45
77192;BME280;66172;48.526;8.078;2023-11-19T08:04:13;99639.94;;;12.40;100.00
77192;BME280;66172;48.526;8.078;2023-11-19T08:06:39;99640.28;;;12.38;100.00
77192;BME280;66172;48.526;8.078;2023-11-19T08:09:05;99639.50;;;12.38;100.00
77192;BME280;66172;48.526;8.078;2023-11-19T08:11:33;99629.81;;;12.40;100.00
77192;BME280;66172;48.526;8.078;2023-11-19T08:13:59;99632.66;;;12.44;99.99
77192;BME280;66172;48.526;8.078;2023-11-19T08:16:25;99640.66;;;12.52;99.80
77192;BME280;66172;48.526;8.078;2023-11-19T08:18:51;99645.66;;;12.63;98.38
77192;BME280;66172;48.526;8.078;2023-11-19T08:21:17;99646.69;;;12.58;98.52
77192;BME280;66172;48.526;8.078;2023-11-19T08:23:42;99643.50;;;12.56;99.12
77192;BME280;66172;48.526;8.078;2023-11-19T08:26:08;99656.69;;;12.66;98.55
77192;BME280;66172;48.526;8.078;2023-11-19T08:28:35;99643.03;;;12.66;98.32
77192;BME280;66172;48.526;8.078;2023-11-19T08:31:01;99665.63;;;12.67;98.48
77192;BME280;66172;48.526;8.078;2023-11-19T08:33:27;99655.19;;;12.69;98.30
77192;BME280;66172;48.526;8.078;2023-11-19T08:35:53;99666.88;;;12.69;98.94
77192;BME280;66172;48.526;8.078;2023-11-19T08:38:19;99656.78;;;12.70;98.61
77192;BME280;66172;48.526;8.078;2023-11-19T08:40:45;99663.09;;;12.74;98.12
77192;BME280;66172;48.526;8.078;2023-11-19T08:43:11;99665.84;;;12.74;98.51
77192;BME280;66172;48.526;8.078;2023-11-19T08:45:37;99669.72;;;12.73;99.39
77192;BME280;66172;48.526;8.078;2023-11-19T08:48:03;99666.13;;;12.84;98.64
77192;BME280;66172;48.526;8.078;2023-11-19T08:50:29;99679.47;;;12.74;100.00
77192;BME280;66172;48.526;8.078;2023-11-19T08:52:54;99664.25;;;12.73;100.00
77192;BME280;66172;48.526;8.078;2023-11-19T08:55:20;99671.09;;;12.67;100.00
77192;BME280;66172;48.526;8.078;2023-11-19T08:57:46;99666.44;;;12.67;100.00
77192;BME280;66172;48.526;8.078;2023-11-19T09:00:12;99683.59;;;12.68;100.00
77192;BME280;66172;48.526;8.078;2023-11-19T09:02:40;99688.94;;;12.64;100.00
77192;BME280;66172;48.526;8.078;2023-11-19T09:05:06;99679.63;;;12.65;100.00
77192;BME280;66172;48.526;8.078;2023-11-19T09:07:33;99686.69;;;12.66;100.00
77192;BME280;66172;48.526;8.078;2023-11-19T09:09:59;99698.03;;;12.68;100.00
77192;BME280;66172;48.526;8.078;2023-11-19T09:12:25;99699.97;;;12.68;100.00
77192;BME280;66172;48.526;8.078;2023-11-19T09:14:51;99696.09;;;12.69;100.00
77192;BME280;66172;48.526;8.078;2023-11-19T09:17:16;99707.47;;;12.71;100.00
77192;BME280;66172;48.526;8.078;2023-11-19T09:19:43;99702.47;;;12.73;100.00
77192;BME280;66172;48.526;8.078;2023-11-19T09:22:09;99694.72;;;12.75;100.00
77192;BME280;66172;48.526;8.078;2023-11-19T09:24:35;99685.72;;;12.74;100.00
77192;BME280;66172;48.526;8.078;2023-11-19T09:27:01;99683.81;;;12.75;100.00
77192;BME280;66172;48.526;8.078;2023-11-19T09:29:27;99691.28;;;12.78;100.00
77192;BME280;66172;48.526;8.078;2023-11-19T09:31:53;99704.59;;;12.79;100.00
77192;BME280;66172;48.526;8.078;2023-11-19T09:34:19;99699.38;;;12.74;100.00
77192;BME280;66172;48.526;8.078;2023-11-19T09:36:45;99702.56;;;12.76;100.00
77192;BME280;66172;48.526;8.078;2023-11-19T09:39:12;99695.72;;;12.82;100.00
77192;BME280;66172;48.526;8.078;2023-11-19T09:41:40;99703.47;;;12.80;100.00
77192;BME280;66172;48.526;8.078;2023-11-19T09:44:08;99700.34;;;12.94;100.00
77192;BME280;66172;48.526;8.078;2023-11-19T09:46:35;99705.34;;;12.92;100.00
77192;BME280;66172;48.526;8.078;2023-11-19T09:49:02;99692.59;;;12.96;98.01
77192;BME280;66172;48.526;8.078;2023-11-19T09:51:29;99689.84;;;12.96;99.19
77192;BME280;66172;48.526;8.078;2023-11-19T09:53:55;99689.16;;;12.99;99.88
77192;BME280;66172;48.526;8.078;2023-11-19T09:56:22;99693.38;;;12.96;100.00
77192;BME280;66172;48.526;8.078;2023-11-19T09:58:48;99684.84;;;12.98;100.00
77192;BME280;66172;48.526;8.078;2023-11-19T10:01:15;99688.47;;;13.02;98.73
77192;BME280;66172;48.526;8.078;2023-11-19T10:03:41;99682.88;;;13.11;96.78
77192;BME280;66172;48.526;8.078;2023-11-19T10:06:10;99666.78;;;13.21;93.92
77192;BME280;66172;48.526;8.078;2023-11-19T10:08:37;99662.41;;;13.32;93.77
77192;BME280;66172;48.526;8.078;2023-11-19T10:11:06;99670.31;;;13.37;94.99
77192;BME280;66172;48.526;8.078;2023-11-19T10:13:35;99670.22;;;13.34;95.34
77192;BME280;66172;48.526;8.078;2023-11-19T10:16:06;99683.53;;;13.35;93.98
77192;BME280;66172;48.526;8.078;2023-11-19T10:18:32;99674.22;;;13.36;93.77
77192;BME280;66172;48.526;8.078;2023-11-19T10:21:06;99675.53;;;13.42;92.45
77192;BME280;66172;48.526;8.078;2023-11-19T10:24:02;99676.31;;;13.43;93.54
77192;BME280;66172;48.526;8.078;2023-11-19T10:26:28;99675.63;;;13.46;93.42
77192;BME280;66172;48.526;8.078;2023-11-19T10:28:55;99679.50;;;13.45;93.58
77192;BME280;66172;48.526;8.078;2023-11-19T10:31:21;99702.16;;;13.45;93.36
77192;BME280;66172;48.526;8.078;2023-11-19T10:33:51;99688.75;;;13.40;95.47
77192;BME280;66172;48.526;8.078;2023-11-19T10:36:17;99691.56;;;13.60;92.21
77192;BME280;66172;48.526;8.078;2023-11-19T10:38:54;99691.31;;;13.49;93.95
77192;BME280;66172;48.526;8.078;2023-11-19T10:41:31;99691.31;;;13.49;94.56
77192;BME280;66172;48.526;8.078;2023-11-19T10:43:57;99683.38;;;13.44;95.06
77192;BME280;66172;48.526;8.078;2023-11-19T10:46:36;99668.84;;;13.40;95.85
77192;BME280;66172;48.526;8.078;2023-11-19T10:49:02;99681.28;;;13.53;95.55
77192;BME280;66172;48.526;8.078;2023-11-19T10:51:29;99672.53;;;13.63;94.07
77192;BME280;66172;48.526;8.078;2023-11-19T10:54:02;99675.19;;;13.75;92.34
77192;BME280;66172;48.526;8.078;2023-11-19T10:56:33;99667.66;;;14.04;92.84
77192;BME280;66172;48.526;8.078;2023-11-19T10:59:00;99645.53;;;14.28;90.48
77192;BME280;66172;48.526;8.078;2023-11-19T11:01:32;99645.38;;;14.75;88.64
77192;BME280;66172;48.526;8.078;2023-11-19T11:04:02;99635.63;;;14.96;85.79
77192;BME280;66172;48.526;8.078;2023-11-19T11:06:28;99633.03;;;15.26;83.98
77192;BME280;66172;48.526;8.078;2023-11-19T11:08:55;99630.97;;;15.42;82.83
77192;BME280;66172;48.526;8.078;2023-11-19T11:11:22;99633.69;;;15.62;82.79
77192;BME280;66172;48.526;8.078;2023-11-19T11:13:50;99634.66;;;15.50;82.30
77192;BME280;66172;48.526;8.078;2023-11-19T11:16:19;99617.22;;;15.39;83.16
77192;BME280;66172;48.526;8.078;2023-11-19T11:18:47;99630.41;;;15.11;82.29
77192;BME280;66172;48.526;8.078;2023-11-19T11:21:21;99630.00;;;15.09;83.75
77192;BME280;66172;48.526;8.078;2023-11-19T11:26:50;99624.56;;;14.70;85.85
77192;BME280;66172;48.526;8.078;2023-11-19T11:29:41;99627.59;;;14.84;84.43
77192;BME280;66172;48.526;8.078;2023-11-19T11:32:33;99623.31;;;14.87;84.21
77192;BME280;66172;48.526;8.078;2023-11-19T11:35:16;99630.38;;;14.69;84.14
77192;BME280;66172;48.526;8.078;2023-11-19T11:37:47;99630.31;;;14.65;85.19
77192;BME280;66172;48.526;8.078;2023-11-19T11:40:16;99643.22;;;14.45;86.07
77192;BME280;66172;48.526;8.078;2023-11-19T11:42:44;99643.94;;;14.62;86.49
77192;BME280;66172;48.526;8.078;2023-11-19T11:45:14;99640.03;;;14.43;86.19
77192;BME280;66172;48.526;8.078;2023-11-19T11:50:16;99630.91;;;14.55;86.81
77192;BME280;66172;48.526;8.078;2023-11-19T11:53:13;99622.84;;;14.62;85.83
77192;BME280;66172;48.526;8.078;2023-11-19T11:58:17;99623.00;;;14.92;84.79
77192;BME280;66172;48.526;8.078;2023-11-19T12:00:43;99622.25;;;14.91;85.31
77192;BME280;66172;48.526;8.078;2023-11-19T12:03:11;99618.91;;;14.82;84.30
77192;BME280;66172;48.526;8.078;2023-11-19T12:05:44;99615.91;;;15.10;85.10
77192;BME280;66172;48.526;8.078;2023-11-19T12:08:11;99616.97;;;15.25;83.71
77192;BME280;66172;48.526;8.078;2023-11-19T12:10:45;99605.88;;;15.40;80.92
77192;BME280;66172;48.526;8.078;2023-11-19T12:13:13;99595.78;;;15.93;80.60
77192;BME280;66172;48.526;8.078;2023-11-19T12:18:28;99594.53;;;16.17;77.11
77192;BME280;66172;48.526;8.078;2023-11-19T12:20:55;99591.34;;;16.15;77.73
77192;BME280;66172;48.526;8.078;2023-11-19T12:23:22;99597.19;;;15.84;78.75
77192;BME280;66172;48.526;8.078;2023-11-19T12:25:48;99602.47;;;16.26;76.77
77192;BME280;66172;48.526;8.078;2023-11-19T12:28:15;99586.88;;;16.33;76.46
77192;BME280;66172;48.526;8.078;2023-11-19T12:30:43;99573.50;;;16.58;76.72
77192;BME280;66172;48.526;8.078;2023-11-19T12:33:14;99577.94;;;16.70;73.78
77192;BME280;66172;48.526;8.078;2023-11-19T12:35:45;99567.94;;;16.88;73.46
77192;BME280;66172;48.526;8.078;2023-11-19T12:38:24;99567.63;;;16.96;73.33
77192;BME280;66172;48.526;8.078;2023-11-19T12:41:06;99569.94;;;16.58;73.61
77192;BME280;66172;48.526;8.078;2023-11-19T12:43:32;99571.44;;;16.52;73.18
77192;BME280;66172;48.526;8.078;2023-11-19T12:46:02;99568.47;;;16.64;74.30
77192;BME280;66172;48.526;8.078;2023-11-19T12:48:28;99558.53;;;16.22;75.42
77192;BME280;66172;48.526;8.078;2023-11-19T12:50:55;99555.09;;;16.62;76.67
77192;BME280;66172;48.526;8.078;2023-11-19T12:53:23;99555.13;;;17.03;75.52
77192;BME280;66172;48.526;8.078;2023-11-19T12:55:50;99549.81;;;17.20;72.97
77192;BME280;66172;48.526;8.078;2023-11-19T12:58:35;99552.75;;;17.45;72.66
77192;BME280;66172;48.526;8.078;2023-11-19T13:01:08;99552.13;;;17.62;71.47
77192;BME280;66172;48.526;8.078;2023-11-19T13:03:36;99547.16;;;17.34;71.17
77192;BME280;66172;48.526;8.078;2023-11-19T13:06:05;99551.38;;;17.72;70.25